Time;durP1;ratioP1;P1;durP2;ratioP2;P2;SDS_P1;SDS_P2;PMS_P1;PMS_P2;Temp;Humidity;BMP_temperature;BMP_pressure;BME280_temperature;BME280_humidity;BME280_pressure;Samples;Min_cycle;Max_cycle;Signal;HPM_P1;HPM_P2
2023/08/11 00:02:15;;;;;;;9.90;7.50;;;15.20;99.90;;;;;;4844715;29;20196;-83
2023/08/11 00:04:41;;;;;;;11.90;6.40;;;15.20;99.90;;;;;;4844316;29;20200;-83
2023/08/11 00:07:06;;;;;;;9.90;6.33;;;15.20;99.90;;;;;;4844547;29;20189;-83
2023/08/11 00:09:32;;;;;;;10.47;7.10;;;15.10;99.90;;;;;;4844273;29;20193;-83
2023/08/11 00:11:58;;;;;;;13.17;7.07;;;15.10;99.90;;;;;;4844428;29;20193;-83
2023/08/11 00:14:23;;;;;;;11.53;6.27;;;15.00;99.90;;;;;;4844611;29;20189;-83
2023/08/11 00:16:49;;;;;;;9.00;5.90;;;15.00;99.90;;;;;;4844241;29;20227;-83
2023/08/11 00:19:14;;;;;;;12.70;7.43;;;15.00;99.90;;;;;;4844888;29;20264;-83
2023/08/11 00:21:41;;;;;;;9.90;7.27;;;15.00;99.90;;;;;;4827174;29;20657;-83
2023/08/11 00:24:07;;;;;;;11.20;6.47;;;15.00;99.90;;;;;;4844142;29;20278;-83
2023/08/11 00:26:32;;;;;;;10.53;7.30;;;14.90;99.90;;;;;;4844608;29;20430;-83
2023/08/11 00:28:58;;;;;;;9.83;6.50;;;14.90;99.90;;;;;;4843953;29;20418;-83
2023/08/11 00:31:24;;;;;;;14.63;7.63;;;14.90;99.90;;;;;;4844440;29;20189;-83
2023/08/11 00:33:51;;;;;;;9.80;6.87;;;14.90;99.90;;;;;;4843711;29;20901;-83
2023/08/11 00:36:17;;;;;;;11.17;6.43;;;14.90;99.90;;;;;;4843975;29;20577;-83
2023/08/11 00:38:43;;;;;;;11.00;6.97;;;14.80;99.90;;;;;;4843947;29;20418;-83
2023/08/11 00:41:09;;;;;;;8.90;6.50;;;14.80;99.90;;;;;;4843977;29;20185;-83
2023/08/11 00:43:35;;;;;;;13.97;7.63;;;14.70;99.90;;;;;;4843997;29;20397;-83
2023/08/11 00:46:22;;;;;;;9.47;6.47;;;14.70;99.90;;;;;;4843677;29;20630;-83
2023/08/11 00:48:51;;;;;;;10.53;7.60;;;14.70;99.90;;;;;;4843947;29;20540;-83
2023/08/11 00:51:18;;;;;;;12.57;7.90;;;14.70;99.90;;;;;;4843787;29;20930;-83
2023/08/11 00:53:51;;;;;;;11.70;7.43;;;14.70;99.90;;;;;;4843737;29;20822;-83
2023/08/11 00:56:19;;;;;;;9.77;7.70;;;14.70;99.90;;;;;;4845919;29;20963;-83
2023/08/11 00:58:45;;;;;;;8.93;6.50;;;14.60;99.90;;;;;;4844687;29;20495;-83
2023/08/11 01:01:11;;;;;;;12.53;7.70;;;14.60;99.90;;;;;;4843907;29;20409;-83
2023/08/11 01:03:37;;;;;;;12.63;8.43;;;14.60;99.90;;;;;;4843621;29;20513;-83
2023/08/11 01:06:18;;;;;;;15.93;7.63;;;14.60;99.90;;;;;;4843671;29;20718;-83
2023/08/11 01:08:58;;;;;;;12.00;7.20;;;14.60;99.90;;;;;;4843874;29;20188;-83
2023/08/11 01:11:55;;;;;;;9.93;7.97;;;14.60;99.90;;;;;;4844341;29;20417;-83
2023/08/11 01:14:30;;;;;;;11.90;6.47;;;14.60;99.90;;;;;;4844182;29;20383;-83
2023/08/11 01:16:58;;;;;;;10.67;6.80;;;14.60;99.90;;;;;;4843831;29;20460;-83
2023/08/11 01:19:31;;;;;;;11.67;6.60;;;14.60;99.90;;;;;;4844180;29;20502;-83
2023/08/11 01:22:00;;;;;;;13.77;8.37;;;14.60;99.90;;;;;;4843797;29;20381;-83
2023/08/11 01:24:27;;;;;;;12.10;7.20;;;14.60;99.90;;;;;;4827346;29;20397;-83
2023/08/11 01:26:53;;;;;;;10.00;8.10;;;14.60;99.90;;;;;;4827339;29;20400;-83
2023/08/11 01:29:19;;;;;;;13.20;7.10;;;14.60;99.90;;;;;;4827859;29;20404;-83
2023/08/11 01:31:45;;;;;;;14.90;7.07;;;14.60;99.90;;;;;;4843621;29;20523;-83
2023/08/11 01:34:11;;;;;;;13.47;7.33;;;14.60;99.90;;;;;;4846301;29;20587;-82
2023/08/11 01:36:39;;;;;;;11.20;7.60;;;14.50;99.90;;;;;;4847237;29;20968;-82
2023/08/11 01:39:04;;;;;;;11.60;7.40;;;14.50;99.90;;;;;;4847374;29;20445;-82
2023/08/11 01:41:31;;;;;;;12.40;6.77;;;14.40;99.90;;;;;;4831297;29;20484;-83
2023/08/11 01:43:58;;;;;;;16.37;8.00;;;14.40;99.90;;;;;;4847057;29;20200;-83
2023/08/11 01:46:27;;;;;;;10.40;7.70;;;14.40;99.90;;;;;;4847543;29;20813;-82
2023/08/11 01:48:55;;;;;;;12.10;7.50;;;14.40;99.90;;;;;;4846619;29;20440;-83
2023/08/11 01:51:21;;;;;;;11.87;8.00;;;14.40;99.90;;;;;;4847189;29;20465;-83
2023/08/11 01:53:48;;;;;;;11.63;7.30;;;14.30;99.90;;;;;;4846992;29;20488;-82
2023/08/11 01:56:15;;;;;;;10.37;7.80;;;14.30;99.90;;;;;;4847002;29;20867;-83
2023/08/11 01:58:40;;;;;;;13.90;7.40;;;14.20;99.90;;;;;;4847158;29;20773;-83
2023/08/11 02:01:07;;;;;;;12.57;7.90;;;14.30;99.90;;;;;;4830558;29;20417;-83
2023/08/11 02:03:33;;;;;;;9.60;6.30;;;14.30;99.90;;;;;;4847151;29;20193;-83
2023/08/11 02:05:59;;;;;;;9.40;6.43;;;14.20;99.90;;;;;;4846929;29;20404;-83
2023/08/11 02:08:25;;;;;;;15.30;7.63;;;14.20;99.90;;;;;;4846702;29;20424;-83
2023/08/11 02:10:52;;;;;;;11.73;8.00;;;14.20;99.90;;;;;;4846882;29;20226;-83
2023/08/11 02:13:19;;;;;;;11.50;7.40;;;14.20;99.90;;;;;;4847444;29;20426;-83
2023/08/11 02:15:44;;;;;;;13.00;6.80;;;14.20;99.90;;;;;;4846754;29;20456;-83
2023/08/11 02:18:10;;;;;;;12.97;6.60;;;14.10;99.90;;;;;;4846820;29;20995;-83
2023/08/11 02:20:35;;;;;;;7.47;6.23;;;14.10;99.90;;;;;;4846603;29;20241;-83
2023/08/11 02:23:01;;;;;;;12.97;7.20;;;14.10;99.90;;;;;;4846335;29;20677;-83
2023/08/11 02:25:27;;;;;;;10.47;6.43;;;14.10;99.90;;;;;;4846437;29;20196;-83
2023/08/11 02:27:52;;;;;;;8.57;6.80;;;14.20;99.90;;;;;;4846068;29;20204;-83
2023/08/11 02:30:18;;;;;;;8.03;6.47;;;14.20;99.90;;;;;;4846400;29;20681;-83
2023/08/11 02:32:47;;;;;;;9.57;6.97;;;14.20;99.90;;;;;;4846261;29;20212;-83
2023/08/11 02:35:13;;;;;;;11.80;6.23;;;14.30;99.90;;;;;;4846313;29;20189;-83
2023/08/11 02:37:40;;;;;;;7.47;6.37;;;14.20;99.90;;;;;;4845880;29;21044;-82
2023/08/11 02:40:10;;;;;;;9.37;6.87;;;14.10;99.90;;;;;;4845803;29;20437;-83
2023/08/11 02:42:54;;;;;;;9.40;5.80;;;14.10;99.90;;;;;;4846161;29;20408;-83
2023/08/11 02:45:20;;;;;;;10.13;5.93;;;14.10;99.90;;;;;;4845209;29;20377;-83
2023/08/11 02:47:46;;;;;;;10.33;6.93;;;14.10;99.90;;;;;;4845548;29;20441;-83
2023/08/11 02:50:13;;;;;;;14.00;6.53;;;14.10;99.90;;;;;;4829643;29;20422;-83
2023/08/11 02:52:38;;;;;;;11.57;7.03;;;14.00;99.90;;;;;;4845941;29;20272;-83
2023/08/11 02:55:06;;;;;;;9.40;7.23;;;14.00;99.90;;;;;;4845557;29;20503;-83
2023/08/11 02:57:32;;;;;;;7.53;6.47;;;14.00;99.90;;;;;;4829290;29;20484;-83
2023/08/11 02:59:58;;;;;;;11.83;5.70;;;14.00;99.90;;;;;;4845762;29;20484;-83
2023/08/11 03:02:23;;;;;;;7.47;5.50;;;13.90;99.90;;;;;;4845832;29;20899;-83
2023/08/11 03:04:49;;;;;;;15.80;6.47;;;13.90;99.90;;;;;;4845754;29;20193;-83
2023/08/11 03:07:16;;;;;;;9.60;5.90;;;13.80;99.90;;;;;;4845817;29;20189;-83
2023/08/11 03:09:42;;;;;;;12.43;6.80;;;13.80;99.90;;;;;;4846226;29;20219;-83
2023/08/11 03:12:08;;;;;;;6.80;5.27;;;13.80;99.90;;;;;;4845620;29;20477;-83
2023/08/11 03:14:36;;;;;;;11.10;7.53;;;13.80;99.90;;;;;;4845752;29;20450;-83
2023/08/11 03:17:05;;;;;;;14.30;7.70;;;13.80;99.90;;;;;;4845157;29;20500;-83
2023/08/11 03:19:31;;;;;;;10.33;6.13;;;13.90;99.90;;;;;;4845230;29;20650;-83
2023/08/11 03:21:57;;;;;;;9.90;6.37;;;13.80;99.90;;;;;;4845445;29;20521;-83
2023/08/11 03:24:22;;;;;;;9.63;6.60;;;13.70;99.90;;;;;;4845776;29;20487;-83
2023/08/11 03:26:48;;;;;;;12.80;6.63;;;13.70;99.90;;;;;;4845210;29;20189;-83
2023/08/11 03:29:13;;;;;;;11.10;7.00;;;13.60;99.90;;;;;;4845469;29;20268;-83
2023/08/11 03:31:39;;;;;;;9.20;6.13;;;13.60;99.90;;;;;;4845360;29;20199;-83
2023/08/11 03:34:04;;;;;;;12.07;7.07;;;13.70;99.90;;;;;;4845160;29;20185;-83
2023/08/11 03:36:30;;;;;;;9.40;7.13;;;13.70;99.90;;;;;;4845378;29;20417;-83
2023/08/11 03:38:56;;;;;;;12.13;6.87;;;13.60;99.90;;;;;;4844847;29;20273;-83
2023/08/11 03:41:21;;;;;;;10.00;7.20;;;13.60;99.90;;;;;;4845159;29;20189;-83
2023/08/11 03:43:47;;;;;;;13.17;6.37;;;13.50;99.90;;;;;;4845133;29;20635;-83
2023/08/11 03:46:13;;;;;;;11.03;6.80;;;13.50;99.90;;;;;;4844997;29;20226;-83
2023/08/11 03:48:38;;;;;;;13.60;7.17;;;13.50;99.90;;;;;;4844597;29;20996;-83
2023/08/11 03:51:04;;;;;;;12.40;7.03;;;13.50;99.90;;;;;;4828615;29;20241;-83
2023/08/11 03:53:30;;;;;;;13.63;7.70;;;13.50;99.90;;;;;;4845442;29;20642;-83
2023/08/11 03:55:57;;;;;;;11.13;8.07;;;13.60;99.90;;;;;;4844625;29;20260;-83
2023/08/11 03:58:23;;;;;;;11.37;8.00;;;13.50;99.90;;;;;;4845088;29;20400;-83
2023/08/11 04:00:49;;;;;;;8.97;6.20;;;13.50;99.90;;;;;;4844858;29;20760;-83
2023/08/11 04:03:15;;;;;;;10.47;6.83;;;13.40;99.90;;;;;;4844733;29;20396;-83
2023/08/11 04:05:41;;;;;;;21.93;7.73;;;13.40;99.90;;;;;;4845058;29;20646;-83
2023/08/11 04:08:07;;;;;;;8.43;6.23;;;13.30;99.90;;;;;;4844681;29;20426;-83
2023/08/11 04:10:35;;;;;;;12.33;6.97;;;13.30;99.90;;;;;;4844879;29;20824;-83
2023/08/11 04:13:00;;;;;;;9.43;6.93;;;13.40;99.90;;;;;;4844226;29;20441;-83
2023/08/11 04:15:27;;;;;;;11.90;6.50;;;13.40;99.90;;;;;;4828634;29;20413;-83
2023/08/11 04:17:52;;;;;;;10.27;6.10;;;13.30;99.90;;;;;;4844067;29;20243;-83
2023/08/11 04:20:18;;;;;;;12.03;6.03;;;13.30;99.90;;;;;;4844856;29;20397;-83
2023/08/11 04:22:44;;;;;;;11.73;6.70;;;13.30;99.90;;;;;;4844600;29;20642;-83
2023/08/11 04:25:11;;;;;;;12.60;6.83;;;13.40;99.90;;;;;;4844362;29;20184;-83
2023/08/11 04:27:39;;;;;;;7.40;5.80;;;13.50;99.90;;;;;;4844141;29;20249;-83
2023/08/11 04:30:05;;;;;;;10.93;5.90;;;13.50;99.90;;;;;;4844466;29;20487;-83
2023/08/11 04:32:31;;;;;;;8.50;5.70;;;13.50;99.90;;;;;;4844052;29;20768;-83
2023/08/11 04:34:57;;;;;;;9.20;5.83;;;13.60;99.90;;;;;;4844076;29;20542;-83
2023/08/11 04:37:22;;;;;;;11.17;6.40;;;13.60;99.90;;;;;;4844333;29;20348;-83
2023/08/11 04:39:48;;;;;;;8.03;6.30;;;13.60;99.90;;;;;;4844495;29;20241;-83
2023/08/11 04:42:13;;;;;;;9.10;6.20;;;13.70;99.90;;;;;;4843910;29;20188;-83
2023/08/11 04:44:39;;;;;;;8.33;5.53;;;13.70;99.90;;;;;;4844095;29;20192;-83
2023/08/11 04:47:05;;;;;;;9.37;6.33;;;13.70;99.90;;;;;;4843982;29;20271;-83
2023/08/11 04:49:32;;;;;;;10.83;6.20;;;13.70;99.90;;;;;;4844084;29;20280;-83
2023/08/11 04:51:58;;;;;;;16.83;6.27;;;13.70;99.90;;;;;;4843616;29;20271;-83
2023/08/11 04:54:24;;;;;;;13.33;5.37;;;13.80;99.90;;;;;;4843758;29;20426;-83
2023/08/11 04:56:50;;;;;;;11.53;6.10;;;13.80;99.90;;;;;;4843556;29;20533;-83
2023/08/11 04:59:17;;;;;;;7.17;5.70;;;13.90;99.90;;;;;;4843346;29;20272;-83
2023/08/11 05:01:43;;;;;;;9.53;6.40;;;13.90;99.90;;;;;;4845236;29;20444;-83
2023/08/11 05:04:09;;;;;;;10.03;6.37;;;14.00;99.90;;;;;;4843439;29;20400;-83
2023/08/11 05:06:35;;;;;;;9.77;5.67;;;14.00;99.90;;;;;;4843582;29;20276;-84
2023/08/11 05:09:04;;;;;;;11.83;5.20;;;14.20;99.90;;;;;;4842857;29;20442;-83
2023/08/11 05:11:30;;;;;;;8.27;5.13;;;14.20;99.90;;;;;;4843606;29;20420;-83
2023/08/11 05:13:56;;;;;;;8.00;5.20;;;14.30;99.90;;;;;;4843667;29;20415;-83
2023/08/11 05:16:22;;;;;;;7.57;5.13;;;14.40;99.90;;;;;;4844122;29;20216;-83
2023/08/11 05:18:48;;;;;;;6.03;4.80;;;14.50;99.90;;;;;;4842972;29;20249;-84
2023/08/11 05:21:14;;;;;;;7.60;4.50;;;14.50;99.90;;;;;;4842985;29;20419;-83
2023/08/11 05:23:39;;;;;;;6.97;5.23;;;14.60;99.90;;;;;;4843189;29;20512;-83
2023/08/11 05:26:05;;;;;;;9.00;5.23;;;14.60;99.90;;;;;;4843217;29;20329;-84
2023/08/11 05:28:31;;;;;;;8.57;5.80;;;14.70;99.90;;;;;;4827183;29;20253;-84
2023/08/11 05:30:56;;;;;;;10.20;5.67;;;14.80;99.90;;;;;;4842958;29;20189;-83
2023/08/11 05:33:24;;;;;;;5.63;4.30;;;14.90;99.90;;;;;;4843340;29;20196;-83
2023/08/11 05:35:49;;;;;;;6.83;4.70;;;15.00;99.90;;;;;;4843445;29;20177;-83
2023/08/11 05:38:15;;;;;;;6.53;4.53;;;15.10;99.90;;;;;;4843058;29;20467;-83
2023/08/11 05:40:42;;;;;;;10.10;4.27;;;15.20;99.90;;;;;;4843114;29;20193;-84
2023/08/11 05:43:08;;;;;;;7.80;4.77;;;15.30;99.90;;;;;;4842681;29;20532;-84
2023/08/11 05:45:33;;;;;;;9.17;4.97;;;15.40;99.90;;;;;;4842831;29;20429;-84
2023/08/11 05:47:59;;;;;;;6.63;4.27;;;15.50;99.90;;;;;;4842558;29;20584;-84
2023/08/11 05:50:25;;;;;;;4.43;3.70;;;15.60;99.90;;;;;;4843060;29;20193;-84
2023/08/11 05:52:50;;;;;;;8.63;4.83;;;15.70;99.90;;;;;;4843093;29;20276;-84
2023/08/11 05:55:16;;;;;;;5.30;4.00;;;15.90;99.90;;;;;;4842751;29;20257;-84
2023/08/11 05:57:42;;;;;;;5.20;3.57;;;15.90;99.90;;;;;;4843229;29;20223;-84
2023/08/11 06:00:09;;;;;;;8.30;4.60;;;16.00;99.90;;;;;;4842576;29;20638;-83
2023/08/11 06:02:34;;;;;;;6.93;4.07;;;16.10;99.90;;;;;;4843322;29;20181;-84
2023/08/11 06:05:00;;;;;;;4.80;3.17;;;16.20;99.90;;;;;;4842743;29;20400;-83
2023/08/11 06:07:25;;;;;;;5.10;4.00;;;16.30;99.90;;;;;;4843049;29;20667;-86
2023/08/11 06:09:51;;;;;;;6.30;3.83;;;16.40;99.90;;;;;;4827028;29;20184;-84
2023/08/11 06:12:17;;;;;;;7.30;3.80;;;16.60;99.90;;;;;;4842697;29;20194;-85
2023/08/11 06:14:42;;;;;;;7.40;3.60;;;16.60;99.90;;;;;;4843105;29;20193;-84
2023/08/11 06:17:08;;;;;;;6.33;3.63;;;16.60;99.90;;;;;;4842658;29;20237;-85
2023/08/11 06:19:33;;;;;;;11.03;3.70;;;16.70;99.90;;;;;;4810490;29;20237;-84
2023/08/11 06:21:59;;;;;;;6.10;4.13;;;16.80;99.90;;;;;;4827676;29;20591;-84
2023/08/11 06:24:25;;;;;;;7.07;3.80;;;16.90;99.90;;;;;;4828251;29;20201;-85
2023/08/11 06:26:51;;;;;;;7.63;4.07;;;17.10;99.90;;;;;;4828057;29;20284;-85
2023/08/11 06:29:17;;;;;;;5.97;3.03;;;17.20;99.90;;;;;;4827546;29;20623;-84
2023/08/11 06:31:42;;;;;;;4.40;3.30;;;17.20;99.90;;;;;;4827688;29;20506;-85
2023/08/11 06:34:08;;;;;;;6.17;3.33;;;17.30;99.90;;;;;;4827530;29;20651;-85
2023/08/11 06:36:34;;;;;;;8.63;3.30;;;17.40;99.90;;;;;;4827686;29;20256;-84
2023/08/11 06:39:00;;;;;;;7.40;3.40;;;17.50;99.90;;;;;;4827570;29;20628;-83
2023/08/11 06:41:25;;;;;;;6.30;3.50;;;17.60;99.90;;;;;;4827592;29;20189;-84
2023/08/11 06:43:53;;;;;;;4.00;3.40;;;17.70;99.90;;;;;;4827621;29;20178;-88
2023/08/11 06:46:18;;;;;;;4.77;3.80;;;17.80;99.90;;;;;;4827470;29;20518;-88
2023/08/11 06:48:44;;;;;;;5.17;3.47;;;17.90;99.90;;;;;;4827999;29;20445;-88
2023/08/11 06:51:09;;;;;;;4.10;3.40;;;18.00;99.90;;;;;;4827614;29;20182;-88
2023/08/11 06:53:35;;;;;;;4.63;3.20;;;18.10;99.90;;;;;;4827791;29;20242;-87
2023/08/11 06:56:00;;;;;;;6.87;3.20;;;18.20;99.90;;;;;;4827643;29;20278;-89
2023/08/11 06:58:26;;;;;;;4.30;3.57;;;18.30;99.90;;;;;;4827621;29;20742;-89
2023/08/11 07:00:52;;;;;;;5.60;3.17;;;18.40;99.90;;;;;;4811044;29;20190;-89
2023/08/11 07:03:17;;;;;;;9.00;3.33;;;18.50;99.90;;;;;;4811193;29;20239;-93
2023/08/11 07:05:43;;;;;;;4.33;3.10;;;18.60;99.90;;;;;;4811405;29;20217;-89
2023/08/11 07:08:09;;;;;;;4.53;2.90;;;18.70;99.90;;;;;;4811120;29;20225;-88
2023/08/11 07:10:35;;;;;;;6.87;3.83;;;18.80;99.90;;;;;;4810986;29;20194;-90
2023/08/11 07:13:01;;;;;;;4.93;3.17;;;18.90;99.90;;;;;;4811028;29;20255;-91
2023/08/11 07:15:27;;;;;;;7.10;3.83;;;19.00;99.90;;;;;;4826818;29;20419;-88
2023/08/11 07:17:52;;;;;;;4.43;3.00;;;19.20;99.90;;;;;;4827160;29;20271;-89
2023/08/11 07:20:18;;;;;;;6.00;3.30;;;19.30;99.90;;;;;;4826490;29;20276;-87
2023/08/11 07:22:44;;;;;;;5.50;3.03;;;19.40;99.90;;;;;;4827178;29;20722;-88
2023/08/11 07:25:09;;;;;;;4.00;3.50;;;19.60;99.90;;;;;;4827140;29;20213;-87
2023/08/11 07:27:35;;;;;;;4.57;3.37;;;19.70;99.90;;;;;;4832904;29;20217;-87
2023/08/11 07:30:00;;;;;;;4.20;3.07;;;19.80;99.90;;;;;;4826982;29;20190;-88
2023/08/11 07:32:26;;;;;;;3.80;3.30;;;19.90;99.90;;;;;;4826217;29;20190;-90
2023/08/11 07:34:52;;;;;;;4.00;3.10;;;19.90;99.90;;;;;;4826886;29;20182;-87
2023/08/11 07:37:17;;;;;;;3.77;2.83;;;20.10;99.90;;;;;;4826476;29;20575;-88
2023/08/11 07:39:43;;;;;;;3.40;2.63;;;20.20;99.90;;;;;;4826807;29;20252;-88
2023/08/11 07:42:08;;;;;;;7.00;3.07;;;20.40;99.90;;;;;;4826600;29;20635;-87
2023/08/11 07:44:34;;;;;;;3.43;2.80;;;20.60;99.90;;;;;;4826983;29;20217;-89
2023/08/11 07:47:03;;;;;;;3.90;2.60;;;20.70;99.90;;;;;;4826659;29;20670;-88
2023/08/11 07:49:29;;;;;;;3.07;2.77;;;20.80;99.90;;;;;;4810423;29;20194;-88
2023/08/11 07:51:54;;;;;;;3.77;2.80;;;20.90;99.90;;;;;;4826253;29;20530;-90
2023/08/11 07:54:20;;;;;;;6.73;3.20;;;21.00;99.90;;;;;;4826328;29;20416;-88
2023/08/11 07:56:46;;;;;;;3.20;2.60;;;21.20;99.90;;;;;;4826477;29;20213;-87
2023/08/11 07:59:11;;;;;;;3.27;2.70;;;21.20;99.90;;;;;;4825761;29;20189;-88
2023/08/11 08:01:37;;;;;;;7.90;3.00;;;21.40;99.90;;;;;;4809791;29;20277;-88
2023/08/11 08:04:04;;;;;;;4.37;2.60;;;21.60;99.90;;;;;;4826366;29;20189;-88
2023/08/11 08:06:31;;;;;;;3.43;3.03;;;21.60;99.90;;;;;;4826246;29;20529;-88
2023/08/11 08:08:57;;;;;;;3.80;3.23;;;21.70;99.90;;;;;;4831527;29;21039;-88
2023/08/11 08:11:23;;;;;;;4.20;2.70;;;22.00;99.90;;;;;;4826247;29;20423;-88
2023/08/11 08:13:49;;;;;;;3.83;3.37;;;22.30;99.90;;;;;;4825948;29;20483;-88
2023/08/11 08:16:14;;;;;;;3.20;2.60;;;22.50;99.90;;;;;;4825692;29;20427;-88
2023/08/11 08:18:40;;;;;;;3.03;2.57;;;22.90;99.90;;;;;;4826073;29;20675;-87
2023/08/11 08:21:05;;;;;;;4.00;2.97;;;23.20;99.90;;;;;;4809479;29;20193;-89
2023/08/11 08:23:31;;;;;;;3.97;2.30;;;23.60;99.90;;;;;;4825881;29;20561;-88
2023/08/11 08:25:57;;;;;;;5.63;2.90;;;23.90;99.90;;;;;;4809625;29;20189;-88
2023/08/11 08:28:23;;;;;;;2.97;2.57;;;24.30;99.90;;;;;;4809328;29;20193;-87
2023/08/11 08:30:48;;;;;;;4.60;2.37;;;24.50;99.90;;;;;;4826139;29;20819;-88
2023/08/11 08:33:14;;;;;;;6.07;3.00;;;24.70;99.90;;;;;;4825647;29;20189;-89
2023/08/11 08:35:40;;;;;;;8.13;2.53;;;24.90;99.90;;;;;;4825630;29;20571;-88
2023/08/11 08:38:05;;;;;;;2.77;2.57;;;25.10;99.90;;;;;;4809188;29;20214;-89
2023/08/11 08:40:34;;;;;;;4.50;3.10;;;25.40;99.90;;;;;;4825133;29;20196;-88
2023/08/11 08:43:00;;;;;;;3.83;2.40;;;25.90;99.90;;;;;;4824618;29;20185;-87
2023/08/11 08:45:25;;;;;;;3.00;2.53;;;26.10;99.90;;;;;;4824880;29;20427;-87
2023/08/11 08:47:54;;;;;;;3.97;2.50;;;26.70;99.90;;;;;;4808970;29;20447;-87
2023/08/11 08:50:21;;;;;;;2.60;2.40;;;27.00;99.90;;;;;;4825224;29;20273;-88
2023/08/11 08:52:47;;;;;;;2.77;2.33;;;27.30;99.90;;;;;;4825449;29;20419;-88
2023/08/11 08:55:13;;;;;;;2.97;2.67;;;27.20;99.90;;;;;;4824692;29;20796;-88
2023/08/11 08:57:40;;;;;;;8.37;2.47;;;27.30;99.90;;;;;;4808627;29;20475;-88
2023/08/11 09:00:07;;;;;;;3.60;2.97;;;27.90;99.90;;;;;;4808757;29;20284;-90
2023/08/11 09:02:33;;;;;;;3.50;2.60;;;28.30;99.90;;;;;;4824864;29;20509;-88
2023/08/11 09:04:59;;;;;;;6.93;2.90;;;28.60;99.90;;;;;;4824911;29;20534;-88
2023/08/11 09:07:25;;;;;;;3.70;2.57;;;28.20;99.90;;;;;;4808357;29;20438;-87
2023/08/11 09:09:50;;;;;;;2.43;2.20;;;28.50;99.90;;;;;;4825067;29;20200;-87
2023/08/11 09:12:16;;;;;;;3.77;2.17;;;29.20;99.90;;;;;;4808214;29;20193;-88
2023/08/11 09:14:42;;;;;;;2.90;2.60;;;29.40;99.90;;;;;;4824936;29;20639;-88
2023/08/11 09:17:08;;;;;;;2.73;2.53;;;30.20;99.90;;;;;;4824774;29;20232;-85
2023/08/11 09:19:34;;;;;;;2.70;2.33;;;30.30;99.90;;;;;;4825003;29;20530;-87
2023/08/11 09:22:00;;;;;;;4.33;2.50;;;29.80;99.90;;;;;;4826079;29;20188;-87
2023/08/11 09:24:29;;;;;;;2.47;2.07;;;27.90;99.90;;;;;;4826312;29;20795;-87
2023/08/11 09:26:54;;;;;;;2.37;2.17;;;28.30;99.90;;;;;;4825207;29;20192;-88
2023/08/11 09:29:20;;;;;;;3.47;2.40;;;29.30;99.90;;;;;;4808452;29;20438;-87
2023/08/11 09:31:50;;;;;;;2.40;2.10;;;30.00;99.90;;;;;;4824555;29;20189;-86
2023/08/11 09:34:17;;;;;;;2.83;1.90;;;29.80;99.90;;;;;;4824577;29;20170;-86
2023/08/11 09:36:44;;;;;;;4.30;2.60;;;29.80;99.90;;;;;;4824454;29;20466;-87
2023/08/11 09:39:11;;;;;;;2.87;2.57;;;30.40;99.90;;;;;;4824770;29;20522;-86
2023/08/11 09:41:41;;;;;;;4.73;2.60;;;31.10;99.90;;;;;;4808379;29;20442;-87
2023/08/11 09:44:08;;;;;;;5.60;2.60;;;31.30;99.90;;;;;;4824874;29;20415;-87
2023/08/11 09:46:38;;;;;;;4.13;2.43;;;31.10;99.90;;;;;;4808080;29;20431;-86
2023/08/11 09:49:05;;;;;;;3.73;2.17;;;31.40;99.90;;;;;;4824378;29;20485;-86
2023/08/11 09:51:34;;;;;;;6.13;2.20;;;30.90;99.90;;;;;;4824463;29;20465;-86
2023/08/11 09:54:06;;;;;;;6.57;2.90;;;30.30;99.90;;;;;;4824993;29;20530;-87
2023/08/11 09:56:36;;;;;;;4.77;2.20;;;30.40;99.90;;;;;;4827784;29;20478;-86
2023/08/11 09:59:09;;;;;;;4.17;2.37;;;30.80;99.90;;;;;;4811604;29;20453;-87
2023/08/11 10:01:36;;;;;;;3.10;2.40;;;30.80;99.90;;;;;;4811391;29;20517;-87
2023/08/11 10:04:12;;;;;;;4.60;2.47;;;31.20;99.90;;;;;;4827708;29;20442;-87
2023/08/11 10:06:41;;;;;;;3.33;2.40;;;30.90;99.90;;;;;;4827794;29;20853;-87
2023/08/11 10:09:12;;;;;;;2.30;2.10;;;32.40;99.90;;;;;;4827699;29;20457;-86
2023/08/11 10:11:40;;;;;;;3.80;2.27;;;31.90;99.90;;;;;;4827818;29;20417;-87
2023/08/11 10:14:05;;;;;;;5.00;2.43;;;32.40;99.90;;;;;;4811395;29;20490;-87
2023/08/11 10:16:31;;;;;;;7.20;2.33;;;32.10;99.90;;;;;;4826813;29;20561;-87
2023/08/11 10:18:58;;;;;;;8.20;3.10;;;31.70;99.90;;;;;;4827467;29;20248;-87
2023/08/11 10:21:27;;;;;;;2.60;2.10;;;31.50;99.90;;;;;;4827700;29;20193;-87
2023/08/11 10:23:55;;;;;;;2.33;2.10;;;32.20;99.90;;;;;;4827079;29;20912;-87
2023/08/11 10:26:23;;;;;;;2.93;2.30;;;30.80;99.90;;;;;;4827052;29;20423;-87
2023/08/11 10:28:50;;;;;;;5.77;2.80;;;31.30;99.90;;;;;;4827388;29;20423;-87
2023/08/11 10:31:16;;;;;;;2.60;2.33;;;31.90;99.90;;;;;;4796133;29;20438;-87
2023/08/11 10:33:48;;;;;;;6.13;2.50;;;31.90;99.60;;;;;;4827331;29;20513;-87
2023/08/11 10:36:17;;;;;;;6.43;2.70;;;30.80;99.90;;;;;;4826892;29;20197;-89
2023/08/11 10:38:44;;;;;;;3.73;3.00;;;31.40;99.90;;;;;;4827001;29;20455;-86
2023/08/11 10:41:10;;;;;;;2.70;2.50;;;31.90;99.90;;;;;;4827029;29;20821;-86
2023/08/11 10:43:37;;;;;;;6.73;2.40;;;32.10;99.90;;;;;;4826805;29;20419;-87
2023/08/11 10:46:42;;;;;;;2.83;2.47;;;32.20;99.90;;;;;;4810919;29;20442;-87
2023/08/11 10:49:07;;;;;;;4.50;2.20;;;32.70;98.80;;;;;;4720624;30;20858;-86
2023/08/11 10:51:34;;;;;;;3.90;2.53;;;31.70;98.00;;;;;;4735450;30;20435;-86
2023/08/11 10:54:09;;;;;;;2.90;2.30;;;31.40;97.90;;;;;;4778357;29;20378;-86
2023/08/11 10:56:42;;;;;;;4.67;2.70;;;30.90;98.30;;;;;;4826750;29;20943;-86
2023/08/11 10:59:15;;;;;;;4.47;2.37;;;30.80;99.90;;;;;;4826801;29;20431;-86
2023/08/11 11:01:43;;;;;;;5.97;3.17;;;31.00;99.50;;;;;;4827064;29;20423;-85
2023/08/11 11:04:11;;;;;;;7.20;2.93;;;31.20;98.40;;;;;;4826669;29;20427;-85
2023/08/11 11:06:37;;;;;;;6.00;2.67;;;31.30;98.60;;;;;;4825477;29;20756;-85
2023/08/11 11:09:03;;;;;;;3.37;2.50;;;31.40;98.70;;;;;;4810163;29;20522;-86
2023/08/11 11:11:32;;;;;;;6.00;2.70;;;32.20;99.20;;;;;;4826262;29;20893;-86
2023/08/11 11:13:59;;;;;;;3.03;2.60;;;32.30;99.00;;;;;;4826517;29;20427;-85
2023/08/11 11:16:26;;;;;;;3.73;3.00;;;31.80;96.50;;;;;;4826213;29;20470;-86
2023/08/11 11:18:52;;;;;;;3.97;2.73;;;31.90;97.40;;;;;;4826338;29;20821;-86
2023/08/11 11:21:19;;;;;;;4.10;2.70;;;32.20;96.90;;;;;;4826352;29;20431;-87
2023/08/11 11:23:48;;;;;;;3.30;2.33;;;32.80;95.60;;;;;;4810242;29;20247;-87
2023/08/11 11:26:20;;;;;;;6.80;3.00;;;33.10;94.10;;;;;;4826387;29;20423;-87
2023/08/11 11:28:45;;;;;;;3.13;2.70;;;33.40;95.50;;;;;;4810379;29;20979;-86
2023/08/11 11:31:12;;;;;;;3.07;2.67;;;33.60;94.80;;;;;;4828895;29;20522;-86
2023/08/11 11:33:38;;;;;;;3.33;2.63;;;33.60;94.50;;;;;;4829033;29;20598;-86
2023/08/11 11:36:04;;;;;;;2.93;2.73;;;33.10;93.60;;;;;;4810277;29;20427;-86
2023/08/11 11:38:29;;;;;;;3.50;2.47;;;33.30;94.40;;;;;;4826065;29;20254;-86
2023/08/11 11:40:55;;;;;;;2.63;2.37;;;33.40;94.80;;;;;;4809930;29;20670;-86
2023/08/11 11:43:20;;;;;;;2.60;2.07;;;33.60;93.50;;;;;;4794408;29;20584;-87
2023/08/11 11:45:49;;;;;;;7.70;2.80;;;33.20;93.70;;;;;;4826520;29;20199;-87
2023/08/11 11:48:15;;;;;;;4.17;2.70;;;33.40;94.30;;;;;;4826207;29;20613;-86
2023/08/11 11:50:41;;;;;;;3.63;2.50;;;33.70;92.40;;;;;;4809513;29;20517;-86
2023/08/11 11:53:07;;;;;;;6.30;2.63;;;33.90;92.50;;;;;;4825684;29;20654;-86
2023/08/11 11:55:41;;;;;;;7.07;2.67;;;33.60;91.70;;;;;;4825634;29;20427;-86
2023/08/11 11:58:07;;;;;;;3.80;2.90;;;33.30;92.20;;;;;;4825600;29;20614;-86
2023/08/11 12:00:33;;;;;;;5.07;2.63;;;33.20;92.30;;;;;;4794337;29;20426;-87
2023/08/11 12:02:58;;;;;;;4.03;3.00;;;33.40;92.00;;;;;;4825669;29;20197;-87
2023/08/11 12:05:26;;;;;;;6.23;2.67;;;33.30;91.30;;;;;;4825580;29;20431;-87
2023/08/11 12:07:51;;;;;;;3.50;2.50;;;33.00;93.80;;;;;;4809543;29;20211;-86
2023/08/11 12:10:21;;;;;;;3.53;2.80;;;33.70;92.00;;;;;;4826062;29;20892;-87
2023/08/11 12:12:47;;;;;;;3.60;2.63;;;34.50;91.60;;;;;;4825549;29;20205;-87
2023/08/11 12:15:17;;;;;;;2.97;2.67;;;34.60;92.30;;;;;;4829521;29;20479;-87
2023/08/11 12:17:48;;;;;;;3.10;2.60;;;34.70;90.50;;;;;;4824731;29;20494;-86
2023/08/11 12:20:14;;;;;;;5.87;3.17;;;34.90;90.70;;;;;;4825656;29;20464;-87
2023/08/11 12:22:42;;;;;;;2.93;2.63;;;35.60;87.60;;;;;;4809036;29;20946;-87
2023/08/11 12:25:08;;;;;;;5.63;2.80;;;35.20;88.50;;;;;;4825711;29;20526;-87
2023/08/11 12:27:37;;;;;;;2.97;2.60;;;34.80;84.20;;;;;;4793857;29;20529;-86
2023/08/11 12:30:02;;;;;;;6.10;2.43;;;34.50;85.40;;;;;;4825019;29;20182;-87
2023/08/11 12:32:28;;;;;;;4.67;2.50;;;34.20;87.10;;;;;;4809041;29;20430;-87
2023/08/11 12:34:54;;;;;;;3.10;2.80;;;34.60;88.30;;;;;;4825327;29;20196;-86
2023/08/11 12:37:19;;;;;;;3.40;2.67;;;35.10;91.10;;;;;;4793700;29;20690;-87
2023/08/11 12:39:45;;;;;;;3.97;2.40;;;36.00;91.60;;;;;;4825117;29;20189;-84
2023/08/11 12:42:10;;;;;;;3.67;2.63;;;35.40;82.60;;;;;;4808678;29;20196;-87